JAL208 RJGG-RJTT
Flight info
| Callsign | JAL208 |
|---|---|
| Flight time | N/A |
| Altitude | 21000 |
| Route | BOGON Y23 ARTIC Y71 XAC |
| Aircraft | B738/M-SDE2E3FGHIRWXY/LB1 |
Departure
| Time | 2026-05-08 10:34 |
|---|---|
| Airport | Chubu Centrair International Airport (RJGG) |
Arrival
| Time | N/A |
|---|---|
| Airport | Tokyo Haneda International Airport (RJTT) |
| Time | Latitude | Longitude | Altitude | Speed | Heading |
|---|---|---|---|---|---|
| 2026-05-08 10:21 | 34.85922 | 136.81053 | 27 ft | 0 kts | 172° |
| 2026-05-08 10:24 | 34.85924 | 136.81052 | 28 ft | 2 kts | 172° |
| 2026-05-08 10:24 | 34.85938 | 136.81050 | 28 ft | 2 kts | 172° |
| 2026-05-08 10:25 | 34.85952 | 136.81048 | 28 ft | 2 kts | 172° |
| 2026-05-08 10:25 | 34.85966 | 136.81046 | 28 ft | 2 kts | 173° |
| 2026-05-08 10:25 | 34.85979 | 136.81044 | 28 ft | 2 kts | 177° |
| 2026-05-08 10:25 | 34.85990 | 136.81044 | 28 ft | 1 kts | 193° |
| 2026-05-08 10:26 | 34.85996 | 136.81046 | 27 ft | 1 kts | 217° |
| 2026-05-08 10:26 | 34.86001 | 136.81051 | 28 ft | 1 kts | 239° |
| 2026-05-08 10:26 | 34.86003 | 136.81057 | 28 ft | 1 kts | 251° |
| 2026-05-08 10:26 | 34.86005 | 136.81064 | 28 ft | 1 kts | 256° |
| 2026-05-08 10:27 | 34.86006 | 136.81068 | 28 ft | 0 kts | 257° |
| 2026-05-08 10:28 | 34.86006 | 136.81067 | 28 ft | 0 kts | 257° |
| 2026-05-08 10:28 | 34.86003 | 136.81056 | 28 ft | 2 kts | 257° |
| 2026-05-08 10:28 | 34.85998 | 136.81025 | 27 ft | 5 kts | 260° |
| 2026-05-08 10:28 | 34.85991 | 136.80977 | 27 ft | 7 kts | 260° |
| 2026-05-08 10:29 | 34.85982 | 136.80912 | 27 ft | 9 kts | 259° |
| 2026-05-08 10:29 | 34.85934 | 136.80874 | 27 ft | 10 kts | 176° |
| 2026-05-08 10:29 | 34.85858 | 136.80891 | 27 ft | 12 kts | 169° |
| 2026-05-08 10:29 | 34.85768 | 136.80912 | 27 ft | 14 kts | 169° |
| 2026-05-08 10:30 | 34.85664 | 136.80937 | 27 ft | 16 kts | 168° |
| 2026-05-08 10:30 | 34.85546 | 136.80966 | 27 ft | 18 kts | 168° |
| 2026-05-08 10:30 | 34.85415 | 136.80998 | 27 ft | 20 kts | 169° |
| 2026-05-08 10:30 | 34.85272 | 136.81031 | 27 ft | 22 kts | 169° |
| 2026-05-08 10:31 | 34.85116 | 136.81069 | 27 ft | 24 kts | 169° |
| 2026-05-08 10:31 | 34.84955 | 136.81108 | 27 ft | 23 kts | 169° |
| 2026-05-08 10:31 | 34.84797 | 136.81145 | 27 ft | 24 kts | 169° |
| 2026-05-08 10:31 | 34.84629 | 136.81185 | 27 ft | 25 kts | 169° |
| 2026-05-08 10:32 | 34.84463 | 136.81208 | 27 ft | 21 kts | 207° |
| 2026-05-08 10:32 | 34.84421 | 136.81051 | 29 ft | 20 kts | 259° |
| 2026-05-08 10:32 | 34.84423 | 136.80886 | 23 ft | 17 kts | 316° |
| 2026-05-08 10:32 | 34.84473 | 136.80863 | 24 ft | 0 kts | 349° |
| 2026-05-08 10:33 | 34.84539 | 136.80847 | 25 ft | 34 kts | 349° |
| 2026-05-08 10:33 | 34.84986 | 136.80741 | 29 ft | 95 kts | 348° |
| 2026-05-08 10:33 | 34.85788 | 136.80525 | 81 ft | 135 kts | 343° |
| 2026-05-08 10:33 | 34.86734 | 136.80280 | 553 ft | 143 kts | 342° |
| 2026-05-08 10:34 | 34.87603 | 136.79743 | 1125 ft | 142 kts | 317° |
| 2026-05-08 10:34 | 34.88144 | 136.78741 | 1711 ft | 147 kts | 292° |
| 2026-05-08 10:34 | 34.88178 | 136.77459 | 2244 ft | 164 kts | 259° |
| 2026-05-08 10:34 | 34.87471 | 136.76210 | 2605 ft | 197 kts | 234° |
| 2026-05-08 10:35 | 34.86449 | 136.74946 | 2799 ft | 220 kts | 232° |
| 2026-05-08 10:35 | 34.85308 | 136.73561 | 2995 ft | 243 kts | 231° |
| 2026-05-08 10:35 | 34.84028 | 136.72147 | 3453 ft | 259 kts | 217° |
| 2026-05-08 10:35 | 34.82306 | 136.71448 | 4272 ft | 269 kts | 188° |
| 2026-05-08 10:36 | 34.80451 | 136.71682 | 5214 ft | 268 kts | 175° |
| 2026-05-08 10:36 | 34.78597 | 136.72132 | 5889 ft | 275 kts | 174° |
| 2026-05-08 10:36 | 34.76779 | 136.72953 | 6564 ft | 289 kts | 151° |
| 2026-05-08 10:36 | 34.75373 | 136.74747 | 7282 ft | 301 kts | 126° |
| 2026-05-08 10:37 | 34.74324 | 136.76977 | 8015 ft | 307 kts | 123° |
| 2026-05-08 10:37 | 34.73306 | 136.79278 | 8760 ft | 310 kts | 123° |
| 2026-05-08 10:37 | 34.72279 | 136.81599 | 9550 ft | 313 kts | 124° |
| 2026-05-08 10:37 | 34.71231 | 136.83936 | 10262 ft | 318 kts | 125° |
| 2026-05-08 10:38 | 34.70124 | 136.86357 | 10513 ft | 341 kts | 125° |
| 2026-05-08 10:38 | 34.68924 | 136.88962 | 10702 ft | 363 kts | 125° |
| 2026-05-08 10:38 | 34.67747 | 136.91745 | 11115 ft | 381 kts | 115° |
| 2026-05-08 10:38 | 34.67207 | 136.94952 | 11775 ft | 392 kts | 101° |
| 2026-05-08 10:39 | 34.67085 | 136.96056 | 12014 ft | 393 kts | 101° |